Ferguson, Missouri
Current Conditions -  °F | °C
As of 7:51 PM on Thursday 18 Dec 2014 (Local Time) from KSTL Reporting Station
Overcast Overcast  
Wind Chill: 30°   Ceiling: 3200
Heat Index: 35°   Visibility: 10mi
Dew Point: 24°   Wind: 6mph
Humidity: 64%   Direction: 80°E
Pressure: 30.28"   Gusts: NA
Location:  38.75°N, 90.3°W
Report Text: KSTL 190151Z 08005KT 10SM OVC032 02/M04 A3028 RMK AO2 SLP263 T00171044
Loading
Personal Weather Stations






























Interactive Weather Map New forecast layout! Learn more

10-Day Weather Forecast

Advertisements
Track Severe Weather on mobile